sensor_id;sensor_type;location;lat;lon;timestamp;P1;durP1;ratioP1;P2;durP2;ratioP2
7477;SDS011;3780;42.424;25.636;2023-05-17T00:02:24;11.48;;;5.63;;
7477;SDS011;3780;42.424;25.636;2023-05-17T00:04:49;8.85;;;5.45;;
7477;SDS011;3780;42.424;25.636;2023-05-17T00:07:14;10.93;;;5.72;;
7477;SDS011;3780;42.424;25.636;2023-05-17T00:09:40;11.73;;;5.05;;
7477;SDS011;3780;42.424;25.636;2023-05-17T00:12:05;10.00;;;5.47;;
7477;SDS011;3780;42.424;25.636;2023-05-17T00:14:30;9.55;;;5.63;;
7477;SDS011;3780;42.424;25.636;2023-05-17T00:16:56;9.55;;;5.55;;
7477;SDS011;3780;42.424;25.636;2023-05-17T00:19:21;11.70;;;5.97;;
7477;SDS011;3780;42.424;25.636;2023-05-17T00:21:46;10.55;;;5.88;;
7477;SDS011;3780;42.424;25.636;2023-05-17T00:24:12;15.60;;;6.32;;
7477;SDS011;3780;42.424;25.636;2023-05-17T00:26:37;12.98;;;6.65;;
7477;SDS011;3780;42.424;25.636;2023-05-17T00:29:02;12.07;;;5.80;;
7477;SDS011;3780;42.424;25.636;2023-05-17T00:31:27;11.50;;;6.15;;
7477;SDS011;3780;42.424;25.636;2023-05-17T00:33:53;13.85;;;6.32;;
7477;SDS011;3780;42.424;25.636;2023-05-17T00:36:18;10.27;;;5.88;;
7477;SDS011;3780;42.424;25.636;2023-05-17T00:38:43;14.18;;;6.95;;
7477;SDS011;3780;42.424;25.636;2023-05-17T00:41:09;11.55;;;6.20;;
7477;SDS011;3780;42.424;25.636;2023-05-17T00:43:34;10.88;;;6.35;;
7477;SDS011;3780;42.424;25.636;2023-05-17T00:45:59;9.63;;;6.05;;
7477;SDS011;3780;42.424;25.636;2023-05-17T00:48:25;17.85;;;6.85;;
7477;SDS011;3780;42.424;25.636;2023-05-17T00:50:52;12.57;;;6.13;;
7477;SDS011;3780;42.424;25.636;2023-05-17T00:53:17;13.13;;;6.72;;
7477;SDS011;3780;42.424;25.636;2023-05-17T00:55:43;11.40;;;6.82;;
7477;SDS011;3780;42.424;25.636;2023-05-17T00:58:09;13.68;;;6.93;;
7477;SDS011;3780;42.424;25.636;2023-05-17T01:00:35;13.90;;;6.95;;
7477;SDS011;3780;42.424;25.636;2023-05-17T01:03:00;14.30;;;6.57;;
7477;SDS011;3780;42.424;25.636;2023-05-17T01:05:25;16.13;;;6.35;;
7477;SDS011;3780;42.424;25.636;2023-05-17T01:07:52;12.68;;;7.05;;
7477;SDS011;3780;42.424;25.636;2023-05-17T01:10:17;12.43;;;6.57;;
7477;SDS011;3780;42.424;25.636;2023-05-17T01:15:15;12.48;;;5.95;;
7477;SDS011;3780;42.424;25.636;2023-05-17T01:20:24;12.38;;;6.55;;
7477;SDS011;3780;42.424;25.636;2023-05-17T01:28:01;12.73;;;5.72;;
7477;SDS011;3780;42.424;25.636;2023-05-17T01:30:27;14.68;;;5.90;;
7477;SDS011;3780;42.424;25.636;2023-05-17T01:32:56;9.90;;;5.43;;
7477;SDS011;3780;42.424;25.636;2023-05-17T01:35:23;11.68;;;6.00;;
7477;SDS011;3780;42.424;25.636;2023-05-17T01:37:48;10.65;;;5.82;;
7477;SDS011;3780;42.424;25.636;2023-05-17T01:40:13;10.38;;;5.35;;
7477;SDS011;3780;42.424;25.636;2023-05-17T01:42:40;10.68;;;5.65;;
7477;SDS011;3780;42.424;25.636;2023-05-17T01:50:03;13.77;;;6.35;;
7477;SDS011;3780;42.424;25.636;2023-05-17T01:55:21;9.88;;;6.22;;
7477;SDS011;3780;42.424;25.636;2023-05-17T01:57:43;13.25;;;6.93;;
7477;SDS011;3780;42.424;25.636;2023-05-17T02:00:09;10.65;;;6.57;;
7477;SDS011;3780;42.424;25.636;2023-05-17T02:02:35;13.57;;;7.85;;
7477;SDS011;3780;42.424;25.636;2023-05-17T02:05:01;11.93;;;6.90;;
7477;SDS011;3780;42.424;25.636;2023-05-17T02:07:26;15.05;;;6.50;;
7477;SDS011;3780;42.424;25.636;2023-05-17T02:09:51;9.25;;;5.75;;
7477;SDS011;3780;42.424;25.636;2023-05-17T02:12:17;11.68;;;6.35;;
7477;SDS011;3780;42.424;25.636;2023-05-17T02:14:42;11.20;;;6.50;;
7477;SDS011;3780;42.424;25.636;2023-05-17T02:17:07;12.32;;;5.97;;
7477;SDS011;3780;42.424;25.636;2023-05-17T02:19:32;9.07;;;6.30;;
7477;SDS011;3780;42.424;25.636;2023-05-17T02:21:58;11.32;;;6.88;;
7477;SDS011;3780;42.424;25.636;2023-05-17T02:24:24;12.52;;;5.82;;
7477;SDS011;3780;42.424;25.636;2023-05-17T02:26:49;10.45;;;6.50;;
7477;SDS011;3780;42.424;25.636;2023-05-17T02:29:14;12.02;;;6.70;;
7477;SDS011;3780;42.424;25.636;2023-05-17T02:31:40;8.60;;;6.38;;
7477;SDS011;3780;42.424;25.636;2023-05-17T02:34:05;9.57;;;7.32;;
7477;SDS011;3780;42.424;25.636;2023-05-17T02:36:30;8.45;;;6.45;;
7477;SDS011;3780;42.424;25.636;2023-05-17T02:38:56;10.95;;;5.22;;
7477;SDS011;3780;42.424;25.636;2023-05-17T02:41:22;9.60;;;4.50;;
7477;SDS011;3780;42.424;25.636;2023-05-17T02:43:47;11.48;;;4.53;;
7477;SDS011;3780;42.424;25.636;2023-05-17T02:46:12;11.80;;;4.60;;
7477;SDS011;3780;42.424;25.636;2023-05-17T02:48:38;10.63;;;4.60;;
7477;SDS011;3780;42.424;25.636;2023-05-17T02:51:03;9.10;;;4.05;;
7477;SDS011;3780;42.424;25.636;2023-05-17T02:53:28;10.95;;;4.25;;
7477;SDS011;3780;42.424;25.636;2023-05-17T02:55:53;10.55;;;4.32;;
7477;SDS011;3780;42.424;25.636;2023-05-17T02:58:22;9.55;;;4.28;;
7477;SDS011;3780;42.424;25.636;2023-05-17T03:00:47;9.25;;;4.75;;
7477;SDS011;3780;42.424;25.636;2023-05-17T03:03:13;7.43;;;4.40;;
7477;SDS011;3780;42.424;25.636;2023-05-17T03:05:38;10.98;;;4.50;;
7477;SDS011;3780;42.424;25.636;2023-05-17T03:08:03;6.70;;;4.03;;
7477;SDS011;3780;42.424;25.636;2023-05-17T03:10:29;8.15;;;4.50;;
7477;SDS011;3780;42.424;25.636;2023-05-17T03:12:54;9.02;;;4.05;;
7477;SDS011;3780;42.424;25.636;2023-05-17T03:15:19;11.00;;;3.95;;
7477;SDS011;3780;42.424;25.636;2023-05-17T03:17:45;6.60;;;4.00;;
7477;SDS011;3780;42.424;25.636;2023-05-17T03:20:10;9.98;;;4.45;;
7477;SDS011;3780;42.424;25.636;2023-05-17T03:22:35;10.18;;;4.03;;
7477;SDS011;3780;42.424;25.636;2023-05-17T03:25:01;6.60;;;3.70;;
7477;SDS011;3780;42.424;25.636;2023-05-17T03:27:26;7.32;;;4.35;;
7477;SDS011;3780;42.424;25.636;2023-05-17T03:29:52;9.50;;;4.18;;
7477;SDS011;3780;42.424;25.636;2023-05-17T03:32:17;8.00;;;3.88;;
7477;SDS011;3780;42.424;25.636;2023-05-17T03:34:42;9.05;;;4.60;;
7477;SDS011;3780;42.424;25.636;2023-05-17T03:37:07;10.15;;;4.63;;
7477;SDS011;3780;42.424;25.636;2023-05-17T03:39:33;8.40;;;4.68;;
7477;SDS011;3780;42.424;25.636;2023-05-17T03:41:58;10.43;;;4.90;;
7477;SDS011;3780;42.424;25.636;2023-05-17T03:44:23;7.47;;;4.80;;
7477;SDS011;3780;42.424;25.636;2023-05-17T03:46:49;12.57;;;4.90;;
7477;SDS011;3780;42.424;25.636;2023-05-17T03:49:14;8.20;;;4.90;;
7477;SDS011;3780;42.424;25.636;2023-05-17T03:51:40;11.30;;;6.35;;
7477;SDS011;3780;42.424;25.636;2023-05-17T03:54:05;10.93;;;4.88;;
7477;SDS011;3780;42.424;25.636;2023-05-17T03:56:30;7.88;;;4.68;;
7477;SDS011;3780;42.424;25.636;2023-05-17T03:58:56;8.20;;;5.00;;
7477;SDS011;3780;42.424;25.636;2023-05-17T04:01:21;11.10;;;5.43;;
7477;SDS011;3780;42.424;25.636;2023-05-17T04:03:47;7.78;;;5.18;;
7477;SDS011;3780;42.424;25.636;2023-05-17T04:06:12;8.80;;;5.15;;
7477;SDS011;3780;42.424;25.636;2023-05-17T04:08:37;12.15;;;6.55;;
7477;SDS011;3780;42.424;25.636;2023-05-17T04:11:03;12.25;;;7.07;;
7477;SDS011;3780;42.424;25.636;2023-05-17T04:13:36;11.80;;;6.43;;
7477;SDS011;3780;42.424;25.636;2023-05-17T04:16:02;14.48;;;6.03;;
7477;SDS011;3780;42.424;25.636;2023-05-17T04:18:27;12.05;;;6.80;;
7477;SDS011;3780;42.424;25.636;2023-05-17T04:20:56;11.25;;;6.20;;
7477;SDS011;3780;42.424;25.636;2023-05-17T04:23:21;11.50;;;6.75;;
7477;SDS011;3780;42.424;25.636;2023-05-17T04:25:46;12.82;;;6.18;;
7477;SDS011;3780;42.424;25.636;2023-05-17T04:28:12;12.48;;;6.55;;
7477;SDS011;3780;42.424;25.636;2023-05-17T04:30:41;18.33;;;14.43;;
7477;SDS011;3780;42.424;25.636;2023-05-17T04:33:06;12.02;;;7.13;;
7477;SDS011;3780;42.424;25.636;2023-05-17T04:35:32;11.80;;;6.05;;
7477;SDS011;3780;42.424;25.636;2023-05-17T04:37:57;10.70;;;5.32;;
7477;SDS011;3780;42.424;25.636;2023-05-17T04:40:22;16.63;;;5.25;;
7477;SDS011;3780;42.424;25.636;2023-05-17T04:42:48;11.65;;;3.33;;
7477;SDS011;3780;42.424;25.636;2023-05-17T04:45:13;9.65;;;4.90;;
7477;SDS011;3780;42.424;25.636;2023-05-17T04:47:40;8.40;;;4.55;;
7477;SDS011;3780;42.424;25.636;2023-05-17T04:50:05;10.73;;;4.82;;
7477;SDS011;3780;42.424;25.636;2023-05-17T04:52:30;12.65;;;4.60;;
7477;SDS011;3780;42.424;25.636;2023-05-17T04:54:56;12.35;;;5.63;;
7477;SDS011;3780;42.424;25.636;2023-05-17T04:57:22;12.55;;;5.65;;
7477;SDS011;3780;42.424;25.636;2023-05-17T04:59:48;13.75;;;6.00;;
7477;SDS011;3780;42.424;25.636;2023-05-17T05:02:14;12.07;;;6.47;;
7477;SDS011;3780;42.424;25.636;2023-05-17T05:04:39;13.73;;;6.07;;
7477;SDS011;3780;42.424;25.636;2023-05-17T05:07:04;11.45;;;5.47;;
7477;SDS011;3780;42.424;25.636;2023-05-17T05:09:30;10.77;;;5.70;;
7477;SDS011;3780;42.424;25.636;2023-05-17T05:11:55;12.63;;;5.82;;
7477;SDS011;3780;42.424;25.636;2023-05-17T05:14:20;17.13;;;5.95;;
7477;SDS011;3780;42.424;25.636;2023-05-17T05:16:46;18.33;;;9.13;;
7477;SDS011;3780;42.424;25.636;2023-05-17T05:19:11;15.27;;;7.05;;
7477;SDS011;3780;42.424;25.636;2023-05-17T05:21:36;19.58;;;7.38;;
7477;SDS011;3780;42.424;25.636;2023-05-17T05:24:02;14.55;;;7.28;;
7477;SDS011;3780;42.424;25.636;2023-05-17T05:26:28;19.00;;;7.10;;
7477;SDS011;3780;42.424;25.636;2023-05-17T05:28:53;24.13;;;9.57;;
7477;SDS011;3780;42.424;25.636;2023-05-17T05:31:19;13.88;;;7.20;;
7477;SDS011;3780;42.424;25.636;2023-05-17T05:33:44;13.43;;;6.95;;
7477;SDS011;3780;42.424;25.636;2023-05-17T05:36:09;12.55;;;6.53;;
7477;SDS011;3780;42.424;25.636;2023-05-17T05:38:35;12.93;;;6.70;;
7477;SDS011;3780;42.424;25.636;2023-05-17T05:41:01;18.50;;;7.13;;
7477;SDS011;3780;42.424;25.636;2023-05-17T05:43:26;13.85;;;6.35;;
7477;SDS011;3780;42.424;25.636;2023-05-17T05:45:51;19.55;;;7.53;;
7477;SDS011;3780;42.424;25.636;2023-05-17T05:48:17;14.77;;;7.30;;
7477;SDS011;3780;42.424;25.636;2023-05-17T05:50:42;12.13;;;6.55;;
7477;SDS011;3780;42.424;25.636;2023-05-17T05:53:08;17.95;;;6.68;;
7477;SDS011;3780;42.424;25.636;2023-05-17T05:55:33;13.93;;;6.10;;
7477;SDS011;3780;42.424;25.636;2023-05-17T05:57:59;17.00;;;7.00;;
7477;SDS011;3780;42.424;25.636;2023-05-17T06:00:24;20.15;;;9.85;;
7477;SDS011;3780;42.424;25.636;2023-05-17T06:02:50;15.95;;;7.47;;
7477;SDS011;3780;42.424;25.636;2023-05-17T06:05:17;17.20;;;7.22;;
7477;SDS011;3780;42.424;25.636;2023-05-17T06:07:42;9.82;;;5.43;;
7477;SDS011;3780;42.424;25.636;2023-05-17T06:10:08;18.27;;;6.20;;
7477;SDS011;3780;42.424;25.636;2023-05-17T06:12:33;10.82;;;5.60;;
7477;SDS011;3780;42.424;25.636;2023-05-17T06:14:58;14.82;;;6.25;;
7477;SDS011;3780;42.424;25.636;2023-05-17T06:17:24;10.70;;;5.32;;
7477;SDS011;3780;42.424;25.636;2023-05-17T06:19:49;17.75;;;6.63;;
7477;SDS011;3780;42.424;25.636;2023-05-17T06:22:14;16.70;;;6.40;;
7477;SDS011;3780;42.424;25.636;2023-05-17T06:24:40;15.07;;;6.13;;
7477;SDS011;3780;42.424;25.636;2023-05-17T06:27:05;16.08;;;5.57;;
7477;SDS011;3780;42.424;25.636;2023-05-17T06:29:31;13.88;;;6.15;;
7477;SDS011;3780;42.424;25.636;2023-05-17T06:31:56;18.13;;;6.40;;
7477;SDS011;3780;42.424;25.636;2023-05-17T06:34:23;21.77;;;7.22;;
7477;SDS011;3780;42.424;25.636;2023-05-17T06:36:49;18.02;;;6.97;;
7477;SDS011;3780;42.424;25.636;2023-05-17T06:39:14;15.48;;;6.28;;
7477;SDS011;3780;42.424;25.636;2023-05-17T06:41:39;27.60;;;6.68;;
7477;SDS011;3780;42.424;25.636;2023-05-17T06:44:05;13.70;;;6.47;;
7477;SDS011;3780;42.424;25.636;2023-05-17T06:46:30;18.92;;;7.32;;
7477;SDS011;3780;42.424;25.636;2023-05-17T06:48:55;24.10;;;7.07;;
7477;SDS011;3780;42.424;25.636;2023-05-17T06:51:21;16.90;;;6.97;;
7477;SDS011;3780;42.424;25.636;2023-05-17T06:53:46;17.83;;;7.07;;
7477;SDS011;3780;42.424;25.636;2023-05-17T06:56:11;19.48;;;6.97;;
7477;SDS011;3780;42.424;25.636;2023-05-17T06:58:36;16.23;;;6.47;;
7477;SDS011;3780;42.424;25.636;2023-05-17T07:01:02;16.17;;;6.65;;
7477;SDS011;3780;42.424;25.636;2023-05-17T07:03:27;12.80;;;6.85;;
7477;SDS011;3780;42.424;25.636;2023-05-17T07:05:52;13.68;;;6.45;;
7477;SDS011;3780;42.424;25.636;2023-05-17T07:08:18;17.08;;;6.65;;
7477;SDS011;3780;42.424;25.636;2023-05-17T07:10:43;14.98;;;6.68;;
7477;SDS011;3780;42.424;25.636;2023-05-17T07:13:08;13.57;;;7.65;;
7477;SDS011;3780;42.424;25.636;2023-05-17T07:15:34;23.48;;;8.52;;
7477;SDS011;3780;42.424;25.636;2023-05-17T07:17:59;20.67;;;9.43;;
7477;SDS011;3780;42.424;25.636;2023-05-17T07:20:24;21.65;;;9.60;;
7477;SDS011;3780;42.424;25.636;2023-05-17T07:22:50;17.92;;;9.75;;
7477;SDS011;3780;42.424;25.636;2023-05-17T07:25:15;23.98;;;10.88;;
7477;SDS011;3780;42.424;25.636;2023-05-17T07:27:42;20.85;;;10.55;;
7477;SDS011;3780;42.424;25.636;2023-05-17T07:30:08;24.55;;;11.25;;
7477;SDS011;3780;42.424;25.636;2023-05-17T07:32:33;34.90;;;11.75;;
7477;SDS011;3780;42.424;25.636;2023-05-17T07:34:58;35.85;;;20.45;;
7477;SDS011;3780;42.424;25.636;2023-05-17T07:37:26;33.75;;;11.02;;
7477;SDS011;3780;42.424;25.636;2023-05-17T07:39:51;20.75;;;10.07;;
7477;SDS011;3780;42.424;25.636;2023-05-17T07:42:16;18.58;;;8.55;;
7477;SDS011;3780;42.424;25.636;2023-05-17T07:44:42;25.58;;;10.40;;
7477;SDS011;3780;42.424;25.636;2023-05-17T07:47:07;27.23;;;10.90;;
7477;SDS011;3780;42.424;25.636;2023-05-17T07:49:32;17.85;;;7.63;;
7477;SDS011;3780;42.424;25.636;2023-05-17T07:51:57;18.05;;;8.55;;
7477;SDS011;3780;42.424;25.636;2023-05-17T07:54:24;17.33;;;12.25;;
7477;SDS011;3780;42.424;25.636;2023-05-17T07:56:50;16.67;;;10.10;;
7477;SDS011;3780;42.424;25.636;2023-05-17T07:59:19;17.17;;;7.22;;
7477;SDS011;3780;42.424;25.636;2023-05-17T08:01:45;19.00;;;7.40;;
7477;SDS011;3780;42.424;25.636;2023-05-17T08:04:10;15.20;;;6.43;;
7477;SDS011;3780;42.424;25.636;2023-05-17T08:06:35;24.10;;;7.55;;
7477;SDS011;3780;42.424;25.636;2023-05-17T08:09:01;18.80;;;7.22;;
7477;SDS011;3780;42.424;25.636;2023-05-17T08:11:26;19.40;;;6.43;;
7477;SDS011;3780;42.424;25.636;2023-05-17T08:13:52;20.77;;;6.47;;
7477;SDS011;3780;42.424;25.636;2023-05-17T08:16:17;15.88;;;6.55;;
7477;SDS011;3780;42.424;25.636;2023-05-17T08:18:43;14.00;;;6.20;;
7477;SDS011;3780;42.424;25.636;2023-05-17T08:21:08;16.67;;;6.43;;
7477;SDS011;3780;42.424;25.636;2023-05-17T08:23:35;13.68;;;6.15;;
7477;SDS011;3780;42.424;25.636;2023-05-17T08:26:00;16.67;;;7.20;;
7477;SDS011;3780;42.424;25.636;2023-05-17T08:28:25;17.27;;;7.13;;
7477;SDS011;3780;42.424;25.636;2023-05-17T08:30:51;16.30;;;7.90;;
7477;SDS011;3780;42.424;25.636;2023-05-17T08:33:16;18.08;;;8.27;;
7477;SDS011;3780;42.424;25.636;2023-05-17T08:35:42;15.52;;;7.85;;
7477;SDS011;3780;42.424;25.636;2023-05-17T08:38:07;23.40;;;8.30;;
7477;SDS011;3780;42.424;25.636;2023-05-17T08:40:32;16.35;;;8.10;;
7477;SDS011;3780;42.424;25.636;2023-05-17T08:42:58;25.77;;;8.25;;
7477;SDS011;3780;42.424;25.636;2023-05-17T08:45:24;12.88;;;7.85;;
7477;SDS011;3780;42.424;25.636;2023-05-17T08:47:50;16.75;;;8.30;;
7477;SDS011;3780;42.424;25.636;2023-05-17T08:50:18;17.30;;;7.38;;
7477;SDS011;3780;42.424;25.636;2023-05-17T08:52:44;12.27;;;6.78;;
7477;SDS011;3780;42.424;25.636;2023-05-17T08:55:10;14.98;;;8.02;;
7477;SDS011;3780;42.424;25.636;2023-05-17T08:57:35;14.45;;;7.93;;
7477;SDS011;3780;42.424;25.636;2023-05-17T09:00:03;16.27;;;7.82;;
7477;SDS011;3780;42.424;25.636;2023-05-17T09:02:36;14.77;;;8.63;;
7477;SDS011;3780;42.424;25.636;2023-05-17T09:05:02;13.80;;;7.22;;
7477;SDS011;3780;42.424;25.636;2023-05-17T09:07:27;18.65;;;8.13;;
7477;SDS011;3780;42.424;25.636;2023-05-17T09:09:53;20.60;;;10.40;;
7477;SDS011;3780;42.424;25.636;2023-05-17T09:12:21;31.13;;;18.98;;
7477;SDS011;3780;42.424;25.636;2023-05-17T09:14:47;17.85;;;10.48;;
7477;SDS011;3780;42.424;25.636;2023-05-17T09:17:13;20.17;;;8.15;;
7477;SDS011;3780;42.424;25.636;2023-05-17T09:19:42;12.38;;;7.30;;
7477;SDS011;3780;42.424;25.636;2023-05-17T09:22:08;18.83;;;8.05;;
7477;SDS011;3780;42.424;25.636;2023-05-17T09:24:36;14.10;;;7.57;;
7477;SDS011;3780;42.424;25.636;2023-05-17T09:27:03;23.33;;;8.35;;
7477;SDS011;3780;42.424;25.636;2023-05-17T09:29:30;13.05;;;8.57;;
7477;SDS011;3780;42.424;25.636;2023-05-17T09:31:56;15.43;;;8.80;;
7477;SDS011;3780;42.424;25.636;2023-05-17T09:34:23;17.17;;;8.70;;
7477;SDS011;3780;42.424;25.636;2023-05-17T09:36:48;17.10;;;9.50;;
7477;SDS011;3780;42.424;25.636;2023-05-17T09:39:14;15.20;;;9.05;;
7477;SDS011;3780;42.424;25.636;2023-05-17T09:41:43;17.42;;;9.57;;
7477;SDS011;3780;42.424;25.636;2023-05-17T09:44:09;17.50;;;8.35;;
7477;SDS011;3780;42.424;25.636;2023-05-17T09:46:36;16.40;;;9.43;;
7477;SDS011;3780;42.424;25.636;2023-05-17T09:49:03;20.30;;;9.25;;
7477;SDS011;3780;42.424;25.636;2023-05-17T09:53:56;17.70;;;8.70;;
7477;SDS011;3780;42.424;25.636;2023-05-17T09:56:22;17.15;;;9.00;;
7477;SDS011;3780;42.424;25.636;2023-05-17T09:58:47;17.60;;;10.77;;
7477;SDS011;3780;42.424;25.636;2023-05-17T10:01:13;18.42;;;8.65;;
7477;SDS011;3780;42.424;25.636;2023-05-17T10:03:39;20.83;;;10.52;;
7477;SDS011;3780;42.424;25.636;2023-05-17T10:06:05;21.67;;;9.23;;
7477;SDS011;3780;42.424;25.636;2023-05-17T10:08:31;17.90;;;8.75;;
7477;SDS011;3780;42.424;25.636;2023-05-17T10:10:58;17.60;;;8.35;;
7477;SDS011;3780;42.424;25.636;2023-05-17T10:13:26;18.77;;;9.65;;
7477;SDS011;3780;42.424;25.636;2023-05-17T10:15:53;18.55;;;9.57;;
7477;SDS011;3780;42.424;25.636;2023-05-17T10:18:19;19.08;;;9.93;;
7477;SDS011;3780;42.424;25.636;2023-05-17T10:20:44;22.13;;;11.07;;
7477;SDS011;3780;42.424;25.636;2023-05-17T10:23:12;23.05;;;12.13;;
7477;SDS011;3780;42.424;25.636;2023-05-17T10:25:38;17.65;;;11.75;;
7477;SDS011;3780;42.424;25.636;2023-05-17T10:28:03;19.48;;;13.10;;
7477;SDS011;3780;42.424;25.636;2023-05-17T10:30:33;40.30;;;24.73;;
7477;SDS011;3780;42.424;25.636;2023-05-17T10:32:59;28.77;;;16.70;;
7477;SDS011;3780;42.424;25.636;2023-05-17T10:35:26;22.33;;;13.30;;
7477;SDS011;3780;42.424;25.636;2023-05-17T10:37:51;27.30;;;13.98;;
7477;SDS011;3780;42.424;25.636;2023-05-17T10:40:17;23.08;;;13.30;;
7477;SDS011;3780;42.424;25.636;2023-05-17T10:42:45;24.15;;;14.45;;
7477;SDS011;3780;42.424;25.636;2023-05-17T10:45:11;31.45;;;17.02;;
7477;SDS011;3780;42.424;25.636;2023-05-17T10:47:38;27.45;;;14.90;;
7477;SDS011;3780;42.424;25.636;2023-05-17T10:50:09;33.92;;;18.75;;
7477;SDS011;3780;42.424;25.636;2023-05-17T10:52:36;24.90;;;15.43;;
7477;SDS011;3780;42.424;25.636;2023-05-17T10:55:02;29.17;;;14.57;;
7477;SDS011;3780;42.424;25.636;2023-05-17T10:57:34;30.10;;;18.00;;
7477;SDS011;3780;42.424;25.636;2023-05-17T11:00:04;37.45;;;22.15;;
7477;SDS011;3780;42.424;25.636;2023-05-17T11:02:32;47.45;;;27.38;;
7477;SDS011;3780;42.424;25.636;2023-05-17T11:04:57;54.88;;;27.02;;
7477;SDS011;3780;42.424;25.636;2023-05-17T11:07:25;48.50;;;26.80;;
7477;SDS011;3780;42.424;25.636;2023-05-17T11:12:30;40.10;;;21.20;;
7477;SDS011;3780;42.424;25.636;2023-05-17T11:14:56;43.38;;;22.92;;
7477;SDS011;3780;42.424;25.636;2023-05-17T11:17:25;54.10;;;20.70;;
7477;SDS011;3780;42.424;25.636;2023-05-17T11:22:17;32.25;;;19.38;;
7477;SDS011;3780;42.424;25.636;2023-05-17T11:24:43;31.63;;;18.10;;
7477;SDS011;3780;42.424;25.636;2023-05-17T11:27:09;39.35;;;19.63;;
7477;SDS011;3780;42.424;25.636;2023-05-17T11:29:34;31.10;;;17.88;;
7477;SDS011;3780;42.424;25.636;2023-05-17T11:32:04;23.98;;;15.98;;
7477;SDS011;3780;42.424;25.636;2023-05-17T11:34:31;27.90;;;16.52;;
7477;SDS011;3780;42.424;25.636;2023-05-17T11:36:57;25.48;;;16.77;;
7477;SDS011;3780;42.424;25.636;2023-05-17T11:39:22;25.65;;;16.75;;
7477;SDS011;3780;42.424;25.636;2023-05-17T11:41:52;24.42;;;15.25;;
7477;SDS011;3780;42.424;25.636;2023-05-17T11:44:21;22.88;;;14.60;;
7477;SDS011;3780;42.424;25.636;2023-05-17T11:46:49;22.67;;;14.73;;
7477;SDS011;3780;42.424;25.636;2023-05-17T11:49:14;28.10;;;17.58;;
7477;SDS011;3780;42.424;25.636;2023-05-17T11:51:40;25.95;;;16.67;;
7477;SDS011;3780;42.424;25.636;2023-05-17T11:54:05;21.40;;;14.68;;
7477;SDS011;3780;42.424;25.636;2023-05-17T11:56:34;23.63;;;16.35;;
7477;SDS011;3780;42.424;25.636;2023-05-17T11:59:00;23.10;;;15.07;;
7477;SDS011;3780;42.424;25.636;2023-05-17T12:01:26;22.65;;;16.13;;
7477;SDS011;3780;42.424;25.636;2023-05-17T12:03:54;34.00;;;19.33;;
7477;SDS011;3780;42.424;25.636;2023-05-17T12:06:21;31.02;;;19.80;;
7477;SDS011;3780;42.424;25.636;2023-05-17T12:08:46;22.67;;;16.77;;
7477;SDS011;3780;42.424;25.636;2023-05-17T12:11:13;22.00;;;17.30;;
7477;SDS011;3780;42.424;25.636;2023-05-17T12:13:39;20.08;;;15.38;;
7477;SDS011;3780;42.424;25.636;2023-05-17T12:16:08;27.83;;;21.50;;
7477;SDS011;3780;42.424;25.636;2023-05-17T12:18:43;22.45;;;16.58;;
7477;SDS011;3780;42.424;25.636;2023-05-17T12:21:09;26.90;;;17.90;;
7477;SDS011;3780;42.424;25.636;2023-05-17T12:23:37;32.75;;;22.45;;
7477;SDS011;3780;42.424;25.636;2023-05-17T12:26:13;22.65;;;18.27;;
7477;SDS011;3780;42.424;25.636;2023-05-17T12:28:40;24.55;;;18.88;;
7477;SDS011;3780;42.424;25.636;2023-05-17T12:31:08;31.60;;;21.77;;
7477;SDS011;3780;42.424;25.636;2023-05-17T12:33:35;26.85;;;20.27;;
7477;SDS011;3780;42.424;25.636;2023-05-17T12:36:01;24.98;;;18.70;;
7477;SDS011;3780;42.424;25.636;2023-05-17T12:38:28;22.80;;;16.42;;
7477;SDS011;3780;42.424;25.636;2023-05-17T12:40:57;25.55;;;17.10;;
7477;SDS011;3780;42.424;25.636;2023-05-17T12:43:23;32.22;;;18.00;;
7477;SDS011;3780;42.424;25.636;2023-05-17T12:45:49;19.95;;;15.88;;
7477;SDS011;3780;42.424;25.636;2023-05-17T12:48:14;23.10;;;15.65;;
7477;SDS011;3780;42.424;25.636;2023-05-17T12:50:43;32.03;;;23.92;;
7477;SDS011;3780;42.424;25.636;2023-05-17T12:53:13;34.30;;;25.08;;
7477;SDS011;3780;42.424;25.636;2023-05-17T12:55:38;23.17;;;17.33;;
7477;SDS011;3780;42.424;25.636;2023-05-17T12:58:03;22.55;;;19.38;;
7477;SDS011;3780;42.424;25.636;2023-05-17T13:00:29;24.02;;;15.90;;
7477;SDS011;3780;42.424;25.636;2023-05-17T13:02:55;29.83;;;20.00;;
7477;SDS011;3780;42.424;25.636;2023-05-17T13:05:20;24.10;;;17.85;;
7477;SDS011;3780;42.424;25.636;2023-05-17T13:07:45;19.75;;;15.00;;
7477;SDS011;3780;42.424;25.636;2023-05-17T13:10:24;18.33;;;15.60;;
7477;SDS011;3780;42.424;25.636;2023-05-17T13:12:53;22.00;;;14.60;;
7477;SDS011;3780;42.424;25.636;2023-05-17T13:15:18;20.77;;;15.65;;
7477;SDS011;3780;42.424;25.636;2023-05-17T13:17:46;18.38;;;14.25;;
7477;SDS011;3780;42.424;25.636;2023-05-17T13:20:13;23.45;;;17.52;;
7477;SDS011;3780;42.424;25.636;2023-05-17T13:22:45;20.55;;;12.70;;
7477;SDS011;3780;42.424;25.636;2023-05-17T13:25:11;24.88;;;15.55;;
7477;SDS011;3780;42.424;25.636;2023-05-17T13:27:36;19.00;;;14.07;;
7477;SDS011;3780;42.424;25.636;2023-05-17T13:30:01;21.77;;;16.17;;
7477;SDS011;3780;42.424;25.636;2023-05-17T13:32:27;21.42;;;14.07;;
7477;SDS011;3780;42.424;25.636;2023-05-17T13:34:53;22.65;;;15.43;;
7477;SDS011;3780;42.424;25.636;2023-05-17T13:37:18;14.23;;;10.35;;
7477;SDS011;3780;42.424;25.636;2023-05-17T13:39:45;13.48;;;11.95;;
7477;SDS011;3780;42.424;25.636;2023-05-17T13:42:10;17.27;;;12.38;;
7477;SDS011;3780;42.424;25.636;2023-05-17T13:44:36;15.82;;;12.70;;
7477;SDS011;3780;42.424;25.636;2023-05-17T13:47:02;20.60;;;13.77;;
7477;SDS011;3780;42.424;25.636;2023-05-17T13:49:27;17.35;;;11.57;;
7477;SDS011;3780;42.424;25.636;2023-05-17T13:51:53;13.32;;;10.60;;
7477;SDS011;3780;42.424;25.636;2023-05-17T13:54:18;11.38;;;8.55;;
7477;SDS011;3780;42.424;25.636;2023-05-17T13:56:44;15.73;;;9.23;;
7477;SDS011;3780;42.424;25.636;2023-05-17T13:59:10;14.38;;;10.65;;
7477;SDS011;3780;42.424;25.636;2023-05-17T14:01:36;19.80;;;13.10;;
7477;SDS011;3780;42.424;25.636;2023-05-17T14:04:01;15.00;;;11.30;;
7477;SDS011;3780;42.424;25.636;2023-05-17T14:06:26;11.20;;;8.55;;
7477;SDS011;3780;42.424;25.636;2023-05-17T14:08:52;10.43;;;8.55;;
7477;SDS011;3780;42.424;25.636;2023-05-17T14:11:18;16.33;;;11.13;;
7477;SDS011;3780;42.424;25.636;2023-05-17T14:13:43;12.68;;;9.32;;
7477;SDS011;3780;42.424;25.636;2023-05-17T14:16:09;21.75;;;13.95;;
7477;SDS011;3780;42.424;25.636;2023-05-17T14:18:34;15.27;;;11.10;;
7477;SDS011;3780;42.424;25.636;2023-05-17T14:20:59;17.88;;;11.23;;
7477;SDS011;3780;42.424;25.636;2023-05-17T14:23:25;37.25;;;28.83;;
7477;SDS011;3780;42.424;25.636;2023-05-17T14:25:50;33.35;;;21.85;;
7477;SDS011;3780;42.424;25.636;2023-05-17T14:28:16;20.50;;;14.95;;
7477;SDS011;3780;42.424;25.636;2023-05-17T14:30:42;23.45;;;14.40;;
7477;SDS011;3780;42.424;25.636;2023-05-17T14:33:07;23.88;;;14.80;;
7477;SDS011;3780;42.424;25.636;2023-05-17T14:35:33;22.30;;;15.50;;
7477;SDS011;3780;42.424;25.636;2023-05-17T14:37:59;26.17;;;16.85;;
7477;SDS011;3780;42.424;25.636;2023-05-17T14:40:24;55.75;;;42.83;;
7477;SDS011;3780;42.424;25.636;2023-05-17T14:42:49;33.95;;;21.10;;
7477;SDS011;3780;42.424;25.636;2023-05-17T14:45:15;29.25;;;18.75;;
7477;SDS011;3780;42.424;25.636;2023-05-17T14:47:40;31.73;;;21.52;;
7477;SDS011;3780;42.424;25.636;2023-05-17T14:50:05;22.10;;;15.70;;
7477;SDS011;3780;42.424;25.636;2023-05-17T14:52:31;21.70;;;16.63;;
7477;SDS011;3780;42.424;25.636;2023-05-17T14:54:57;23.80;;;16.45;;
7477;SDS011;3780;42.424;25.636;2023-05-17T14:57:23;23.70;;;16.17;;
7477;SDS011;3780;42.424;25.636;2023-05-17T14:59:48;22.83;;;14.95;;
7477;SDS011;3780;42.424;25.636;2023-05-17T15:02:13;23.15;;;16.45;;
7477;SDS011;3780;42.424;25.636;2023-05-17T15:04:39;79.07;;;65.25;;